sensor_id;sensor_type;location;lat;lon;timestamp;P1;durP1;ratioP1;P2;durP2;ratioP2
1320;SDS011;653;51.480;11.992;2022-09-01T00:02:11;3.27;;;1.70;;
1320;SDS011;653;51.480;11.992;2022-09-01T00:04:37;3.70;;;2.07;;
1320;SDS011;653;51.480;11.992;2022-09-01T00:07:03;3.30;;;2.10;;
1320;SDS011;653;51.480;11.992;2022-09-01T00:09:32;2.73;;;1.80;;
1320;SDS011;653;51.480;11.992;2022-09-01T00:11:58;2.37;;;1.73;;
1320;SDS011;653;51.480;11.992;2022-09-01T00:14:26;2.77;;;1.73;;
1320;SDS011;653;51.480;11.992;2022-09-01T00:16:54;2.10;;;1.77;;
1320;SDS011;653;51.480;11.992;2022-09-01T00:19:21;4.63;;;1.87;;
1320;SDS011;653;51.480;11.992;2022-09-01T00:21:47;3.03;;;1.80;;
1320;SDS011;653;51.480;11.992;2022-09-01T00:24:13;3.90;;;2.20;;
1320;SDS011;653;51.480;11.992;2022-09-01T00:26:40;4.77;;;1.87;;
1320;SDS011;653;51.480;11.992;2022-09-01T00:29:06;2.00;;;1.60;;
1320;SDS011;653;51.480;11.992;2022-09-01T00:31:31;2.80;;;1.97;;
1320;SDS011;653;51.480;11.992;2022-09-01T00:33:58;1.97;;;1.60;;
1320;SDS011;653;51.480;11.992;2022-09-01T00:36:24;1.80;;;1.53;;
1320;SDS011;653;51.480;11.992;2022-09-01T00:38:49;2.80;;;2.10;;
1320;SDS011;653;51.480;11.992;2022-09-01T00:41:16;4.93;;;1.87;;
1320;SDS011;653;51.480;11.992;2022-09-01T00:43:47;2.27;;;1.77;;
1320;SDS011;653;51.480;11.992;2022-09-01T00:46:22;2.30;;;1.97;;
1320;SDS011;653;51.480;11.992;2022-09-01T00:48:54;4.90;;;2.87;;
1320;SDS011;653;51.480;11.992;2022-09-01T00:51:21;2.83;;;2.00;;
1320;SDS011;653;51.480;11.992;2022-09-01T00:53:47;4.93;;;1.90;;
1320;SDS011;653;51.480;11.992;2022-09-01T00:56:13;4.20;;;1.70;;
1320;SDS011;653;51.480;11.992;2022-09-01T00:58:39;3.30;;;2.00;;
1320;SDS011;653;51.480;11.992;2022-09-01T01:01:06;2.90;;;2.00;;
1320;SDS011;653;51.480;11.992;2022-09-01T01:03:32;5.43;;;2.10;;
1320;SDS011;653;51.480;11.992;2022-09-01T01:05:59;5.20;;;1.93;;
1320;SDS011;653;51.480;11.992;2022-09-01T01:08:29;2.33;;;1.73;;
1320;SDS011;653;51.480;11.992;2022-09-01T01:11:03;3.53;;;1.70;;
1320;SDS011;653;51.480;11.992;2022-09-01T01:16:40;2.30;;;1.60;;
1320;SDS011;653;51.480;11.992;2022-09-01T01:25:40;2.70;;;1.87;;
1320;SDS011;653;51.480;11.992;2022-09-01T01:30:53;2.90;;;2.37;;
1320;SDS011;653;51.480;11.992;2022-09-01T01:33:24;2.30;;;1.67;;
1320;SDS011;653;51.480;11.992;2022-09-01T01:35:52;3.20;;;2.37;;
1320;SDS011;653;51.480;11.992;2022-09-01T01:38:19;2.90;;;1.87;;
1320;SDS011;653;51.480;11.992;2022-09-01T01:40:46;3.40;;;2.00;;
1320;SDS011;653;51.480;11.992;2022-09-01T01:43:12;4.10;;;2.30;;
1320;SDS011;653;51.480;11.992;2022-09-01T01:45:48;3.20;;;2.00;;
1320;SDS011;653;51.480;11.992;2022-09-01T01:48:16;4.10;;;2.57;;
1320;SDS011;653;51.480;11.992;2022-09-01T01:50:48;3.00;;;2.30;;
1320;SDS011;653;51.480;11.992;2022-09-01T01:53:14;3.20;;;2.13;;
1320;SDS011;653;51.480;11.992;2022-09-01T01:55:43;3.60;;;2.30;;
1320;SDS011;653;51.480;11.992;2022-09-01T01:58:10;4.83;;;1.93;;
1320;SDS011;653;51.480;11.992;2022-09-01T02:00:39;2.77;;;2.27;;
1320;SDS011;653;51.480;11.992;2022-09-01T02:03:11;2.33;;;1.80;;
1320;SDS011;653;51.480;11.992;2022-09-01T02:05:38;2.50;;;2.07;;
1320;SDS011;653;51.480;11.992;2022-09-01T02:08:05;6.83;;;2.00;;
1320;SDS011;653;51.480;11.992;2022-09-01T02:10:33;2.53;;;1.93;;
1320;SDS011;653;51.480;11.992;2022-09-01T02:13:02;3.30;;;2.13;;
1320;SDS011;653;51.480;11.992;2022-09-01T02:15:38;3.23;;;2.50;;
1320;SDS011;653;51.480;11.992;2022-09-01T02:18:19;5.17;;;2.37;;
1320;SDS011;653;51.480;11.992;2022-09-01T02:20:49;3.73;;;2.43;;
1320;SDS011;653;51.480;11.992;2022-09-01T02:23:16;4.87;;;2.10;;
1320;SDS011;653;51.480;11.992;2022-09-01T02:25:47;3.00;;;2.33;;
1320;SDS011;653;51.480;11.992;2022-09-01T02:28:16;3.53;;;2.10;;
1320;SDS011;653;51.480;11.992;2022-09-01T02:30:49;4.03;;;2.53;;
1320;SDS011;653;51.480;11.992;2022-09-01T02:33:17;3.13;;;2.30;;
1320;SDS011;653;51.480;11.992;2022-09-01T02:35:47;4.00;;;2.47;;
1320;SDS011;653;51.480;11.992;2022-09-01T02:38:14;2.50;;;2.17;;
1320;SDS011;653;51.480;11.992;2022-09-01T02:40:42;3.73;;;2.10;;
1320;SDS011;653;51.480;11.992;2022-09-01T02:43:09;8.67;;;2.50;;
1320;SDS011;653;51.480;11.992;2022-09-01T02:45:39;2.93;;;1.80;;
1320;SDS011;653;51.480;11.992;2022-09-01T02:48:06;2.50;;;1.93;;
1320;SDS011;653;51.480;11.992;2022-09-01T02:50:34;7.53;;;2.80;;
1320;SDS011;653;51.480;11.992;2022-09-01T02:53:00;5.47;;;2.27;;
1320;SDS011;653;51.480;11.992;2022-09-01T02:55:25;2.90;;;2.00;;
1320;SDS011;653;51.480;11.992;2022-09-01T02:57:51;4.40;;;2.17;;
1320;SDS011;653;51.480;11.992;2022-09-01T03:00:21;3.17;;;1.83;;
1320;SDS011;653;51.480;11.992;2022-09-01T03:02:53;3.80;;;1.90;;
1320;SDS011;653;51.480;11.992;2022-09-01T03:05:21;5.10;;;2.20;;
1320;SDS011;653;51.480;11.992;2022-09-01T03:07:52;4.20;;;1.90;;
1320;SDS011;653;51.480;11.992;2022-09-01T03:10:21;18.00;;;2.80;;
1320;SDS011;653;51.480;11.992;2022-09-01T03:12:51;2.10;;;1.63;;
1320;SDS011;653;51.480;11.992;2022-09-01T03:15:17;6.20;;;3.47;;
1320;SDS011;653;51.480;11.992;2022-09-01T03:17:43;5.23;;;2.50;;
1320;SDS011;653;51.480;11.992;2022-09-01T03:20:09;3.50;;;2.33;;
1320;SDS011;653;51.480;11.992;2022-09-01T03:22:35;3.80;;;1.90;;
1320;SDS011;653;51.480;11.992;2022-09-01T03:25:00;4.70;;;1.87;;
1320;SDS011;653;51.480;11.992;2022-09-01T03:27:26;2.70;;;2.00;;
1320;SDS011;653;51.480;11.992;2022-09-01T03:29:51;4.10;;;2.17;;
1320;SDS011;653;51.480;11.992;2022-09-01T03:32:16;2.23;;;1.80;;
1320;SDS011;653;51.480;11.992;2022-09-01T03:34:43;3.57;;;1.90;;
1320;SDS011;653;51.480;11.992;2022-09-01T03:37:09;2.60;;;2.20;;
1320;SDS011;653;51.480;11.992;2022-09-01T03:39:36;3.20;;;1.50;;
1320;SDS011;653;51.480;11.992;2022-09-01T03:42:02;4.67;;;1.83;;
1320;SDS011;653;51.480;11.992;2022-09-01T03:44:28;2.37;;;1.80;;
1320;SDS011;653;51.480;11.992;2022-09-01T03:46:54;3.43;;;1.93;;
1320;SDS011;653;51.480;11.992;2022-09-01T03:49:19;2.07;;;1.73;;
1320;SDS011;653;51.480;11.992;2022-09-01T03:51:49;2.60;;;1.97;;
1320;SDS011;653;51.480;11.992;2022-09-01T03:54:17;2.47;;;2.10;;
1320;SDS011;653;51.480;11.992;2022-09-01T03:56:42;2.70;;;2.10;;
1320;SDS011;653;51.480;11.992;2022-09-01T03:59:09;2.87;;;2.00;;
1320;SDS011;653;51.480;11.992;2022-09-01T04:01:41;3.00;;;2.40;;
1320;SDS011;653;51.480;11.992;2022-09-01T04:04:08;3.30;;;2.20;;
1320;SDS011;653;51.480;11.992;2022-09-01T04:06:39;2.67;;;1.60;;
1320;SDS011;653;51.480;11.992;2022-09-01T04:09:06;5.30;;;2.50;;
1320;SDS011;653;51.480;11.992;2022-09-01T04:11:32;5.07;;;2.80;;
1320;SDS011;653;51.480;11.992;2022-09-01T04:13:58;3.37;;;2.40;;
1320;SDS011;653;51.480;11.992;2022-09-01T04:16:28;2.37;;;2.10;;
1320;SDS011;653;51.480;11.992;2022-09-01T04:19:15;3.33;;;2.03;;
1320;SDS011;653;51.480;11.992;2022-09-01T04:21:59;3.10;;;2.30;;
1320;SDS011;653;51.480;11.992;2022-09-01T04:24:26;4.93;;;2.20;;
1320;SDS011;653;51.480;11.992;2022-09-01T04:26:53;3.60;;;2.50;;
1320;SDS011;653;51.480;11.992;2022-09-01T04:29:21;4.77;;;2.37;;
1320;SDS011;653;51.480;11.992;2022-09-01T04:31:57;6.60;;;2.50;;
1320;SDS011;653;51.480;11.992;2022-09-01T04:34:27;8.03;;;2.27;;
1320;SDS011;653;51.480;11.992;2022-09-01T04:37:02;2.57;;;2.20;;
1320;SDS011;653;51.480;11.992;2022-09-01T04:39:32;4.90;;;2.77;;
1320;SDS011;653;51.480;11.992;2022-09-01T04:41:57;9.17;;;2.87;;
1320;SDS011;653;51.480;11.992;2022-09-01T04:44:23;6.20;;;2.80;;
1320;SDS011;653;51.480;11.992;2022-09-01T04:46:49;6.90;;;2.67;;
1320;SDS011;653;51.480;11.992;2022-09-01T04:49:16;8.30;;;2.30;;
1320;SDS011;653;51.480;11.992;2022-09-01T04:51:49;3.53;;;2.57;;
1320;SDS011;653;51.480;11.992;2022-09-01T04:54:16;3.97;;;2.30;;
1320;SDS011;653;51.480;11.992;2022-09-01T04:56:42;2.57;;;2.37;;
1320;SDS011;653;51.480;11.992;2022-09-01T04:59:10;4.20;;;2.30;;
1320;SDS011;653;51.480;11.992;2022-09-01T05:01:37;5.87;;;3.00;;
1320;SDS011;653;51.480;11.992;2022-09-01T05:04:10;9.63;;;2.50;;
1320;SDS011;653;51.480;11.992;2022-09-01T05:06:43;9.87;;;4.53;;
1320;SDS011;653;51.480;11.992;2022-09-01T05:09:11;9.80;;;3.20;;
1320;SDS011;653;51.480;11.992;2022-09-01T05:11:37;8.23;;;2.97;;
1320;SDS011;653;51.480;11.992;2022-09-01T05:14:04;13.80;;;3.43;;
1320;SDS011;653;51.480;11.992;2022-09-01T05:16:31;5.50;;;3.03;;
1320;SDS011;653;51.480;11.992;2022-09-01T05:18:57;5.47;;;3.40;;
1320;SDS011;653;51.480;11.992;2022-09-01T05:21:25;5.70;;;2.80;;
1320;SDS011;653;51.480;11.992;2022-09-01T05:23:54;3.60;;;2.63;;
1320;SDS011;653;51.480;11.992;2022-09-01T05:26:22;3.30;;;2.93;;
1320;SDS011;653;51.480;11.992;2022-09-01T05:28:51;4.43;;;2.97;;
1320;SDS011;653;51.480;11.992;2022-09-01T05:31:20;5.43;;;4.67;;
1320;SDS011;653;51.480;11.992;2022-09-01T05:33:47;5.13;;;3.40;;
1320;SDS011;653;51.480;11.992;2022-09-01T05:36:14;4.57;;;3.10;;
1320;SDS011;653;51.480;11.992;2022-09-01T05:38:42;4.43;;;2.70;;
1320;SDS011;653;51.480;11.992;2022-09-01T05:41:09;5.40;;;2.80;;
1320;SDS011;653;51.480;11.992;2022-09-01T05:43:39;4.43;;;3.10;;
1320;SDS011;653;51.480;11.992;2022-09-01T05:46:10;7.03;;;3.70;;
1320;SDS011;653;51.480;11.992;2022-09-01T05:48:43;4.57;;;2.87;;
1320;SDS011;653;51.480;11.992;2022-09-01T05:51:09;6.27;;;2.93;;
1320;SDS011;653;51.480;11.992;2022-09-01T05:53:35;4.63;;;2.73;;
1320;SDS011;653;51.480;11.992;2022-09-01T05:56:05;5.27;;;2.90;;
1320;SDS011;653;51.480;11.992;2022-09-01T05:58:32;4.20;;;2.80;;
1320;SDS011;653;51.480;11.992;2022-09-01T06:00:58;4.43;;;2.87;;
1320;SDS011;653;51.480;11.992;2022-09-01T06:03:25;5.83;;;2.77;;
1320;SDS011;653;51.480;11.992;2022-09-01T06:05:52;5.17;;;3.10;;
1320;SDS011;653;51.480;11.992;2022-09-01T06:08:20;7.53;;;2.87;;
1320;SDS011;653;51.480;11.992;2022-09-01T06:10:47;4.33;;;3.40;;
1320;SDS011;653;51.480;11.992;2022-09-01T06:13:14;6.10;;;3.37;;
1320;SDS011;653;51.480;11.992;2022-09-01T06:15:41;6.23;;;3.97;;
1320;SDS011;653;51.480;11.992;2022-09-01T06:18:08;10.90;;;4.50;;
1320;SDS011;653;51.480;11.992;2022-09-01T06:20:41;8.20;;;3.00;;
1320;SDS011;653;51.480;11.992;2022-09-01T06:23:08;4.40;;;3.00;;
1320;SDS011;653;51.480;11.992;2022-09-01T06:25:45;6.77;;;3.53;;
1320;SDS011;653;51.480;11.992;2022-09-01T06:28:12;5.23;;;3.63;;
1320;SDS011;653;51.480;11.992;2022-09-01T06:30:45;6.53;;;2.77;;
1320;SDS011;653;51.480;11.992;2022-09-01T06:33:12;7.20;;;3.93;;
1320;SDS011;653;51.480;11.992;2022-09-01T06:35:39;5.13;;;3.43;;
1320;SDS011;653;51.480;11.992;2022-09-01T06:38:07;7.27;;;3.07;;
1320;SDS011;653;51.480;11.992;2022-09-01T06:40:33;5.60;;;2.93;;
1320;SDS011;653;51.480;11.992;2022-09-01T06:43:00;10.13;;;2.97;;
1320;SDS011;653;51.480;11.992;2022-09-01T06:45:32;11.03;;;3.10;;
1320;SDS011;653;51.480;11.992;2022-09-01T06:47:58;4.53;;;2.77;;
1320;SDS011;653;51.480;11.992;2022-09-01T06:50:24;5.03;;;3.00;;
1320;SDS011;653;51.480;11.992;2022-09-01T06:52:52;5.80;;;2.80;;
1320;SDS011;653;51.480;11.992;2022-09-01T06:55:25;5.13;;;2.17;;
1320;SDS011;653;51.480;11.992;2022-09-01T06:57:55;4.50;;;3.07;;
1320;SDS011;653;51.480;11.992;2022-09-01T07:00:22;4.67;;;2.57;;
1320;SDS011;653;51.480;11.992;2022-09-01T07:02:52;3.10;;;2.13;;
1320;SDS011;653;51.480;11.992;2022-09-01T07:05:20;6.00;;;2.70;;
1320;SDS011;653;51.480;11.992;2022-09-01T07:07:46;9.23;;;2.83;;
1320;SDS011;653;51.480;11.992;2022-09-01T07:10:18;4.53;;;2.27;;
1320;SDS011;653;51.480;11.992;2022-09-01T07:12:56;5.33;;;2.70;;
1320;SDS011;653;51.480;11.992;2022-09-01T07:15:29;9.20;;;3.30;;
1320;SDS011;653;51.480;11.992;2022-09-01T07:17:56;3.60;;;2.33;;
1320;SDS011;653;51.480;11.992;2022-09-01T07:20:24;5.63;;;2.37;;
1320;SDS011;653;51.480;11.992;2022-09-01T07:22:54;2.40;;;1.83;;
1320;SDS011;653;51.480;11.992;2022-09-01T07:25:20;4.63;;;2.10;;
1320;SDS011;653;51.480;11.992;2022-09-01T07:27:46;2.30;;;2.10;;
1320;SDS011;653;51.480;11.992;2022-09-01T07:30:15;8.80;;;2.10;;
1320;SDS011;653;51.480;11.992;2022-09-01T07:32:43;5.57;;;2.33;;
1320;SDS011;653;51.480;11.992;2022-09-01T07:35:11;3.20;;;2.30;;
1320;SDS011;653;51.480;11.992;2022-09-01T07:37:37;4.57;;;1.90;;
1320;SDS011;653;51.480;11.992;2022-09-01T07:40:07;3.33;;;2.10;;
1320;SDS011;653;51.480;11.992;2022-09-01T07:42:34;2.03;;;1.87;;
1320;SDS011;653;51.480;11.992;2022-09-01T07:45:03;5.30;;;2.57;;
1320;SDS011;653;51.480;11.992;2022-09-01T07:47:33;4.63;;;1.93;;
1320;SDS011;653;51.480;11.992;2022-09-01T07:50:01;3.13;;;2.23;;
1320;SDS011;653;51.480;11.992;2022-09-01T07:52:32;6.40;;;2.40;;
1320;SDS011;653;51.480;11.992;2022-09-01T07:54:58;5.90;;;2.30;;
1320;SDS011;653;51.480;11.992;2022-09-01T07:57:23;5.30;;;2.20;;
1320;SDS011;653;51.480;11.992;2022-09-01T07:59:49;3.20;;;2.10;;
1320;SDS011;653;51.480;11.992;2022-09-01T08:02:15;3.57;;;2.23;;
1320;SDS011;653;51.480;11.992;2022-09-01T08:04:42;2.60;;;1.80;;
1320;SDS011;653;51.480;11.992;2022-09-01T08:07:08;4.63;;;2.50;;
1320;SDS011;653;51.480;11.992;2022-09-01T08:09:35;2.93;;;2.43;;
1320;SDS011;653;51.480;11.992;2022-09-01T08:12:02;4.20;;;2.13;;
1320;SDS011;653;51.480;11.992;2022-09-01T08:14:30;4.67;;;2.33;;
1320;SDS011;653;51.480;11.992;2022-09-01T08:16:55;6.80;;;2.30;;
1320;SDS011;653;51.480;11.992;2022-09-01T08:19:21;5.03;;;2.50;;
1320;SDS011;653;51.480;11.992;2022-09-01T08:21:47;2.53;;;2.33;;
1320;SDS011;653;51.480;11.992;2022-09-01T08:24:13;5.17;;;2.63;;
1320;SDS011;653;51.480;11.992;2022-09-01T08:26:38;3.57;;;2.00;;
1320;SDS011;653;51.480;11.992;2022-09-01T08:29:05;5.53;;;2.70;;
1320;SDS011;653;51.480;11.992;2022-09-01T08:31:30;4.40;;;2.53;;
1320;SDS011;653;51.480;11.992;2022-09-01T08:33:56;2.70;;;2.47;;
1320;SDS011;653;51.480;11.992;2022-09-01T08:36:23;3.47;;;2.80;;
1320;SDS011;653;51.480;11.992;2022-09-01T08:38:48;4.00;;;2.37;;
1320;SDS011;653;51.480;11.992;2022-09-01T08:41:19;3.20;;;2.53;;
1320;SDS011;653;51.480;11.992;2022-09-01T08:46:36;4.90;;;1.87;;
1320;SDS011;653;51.480;11.992;2022-09-01T08:49:08;3.63;;;2.20;;
1320;SDS011;653;51.480;11.992;2022-09-01T08:51:42;3.00;;;2.03;;
1320;SDS011;653;51.480;11.992;2022-09-01T08:56:41;7.20;;;2.20;;
1320;SDS011;653;51.480;11.992;2022-09-01T08:59:08;5.57;;;2.10;;
1320;SDS011;653;51.480;11.992;2022-09-01T09:01:47;2.97;;;2.27;;
1320;SDS011;653;51.480;11.992;2022-09-01T09:04:23;3.73;;;1.70;;
1320;SDS011;653;51.480;11.992;2022-09-01T09:06:59;2.20;;;1.83;;
1320;SDS011;653;51.480;11.992;2022-09-01T09:15:48;3.33;;;1.80;;
1320;SDS011;653;51.480;11.992;2022-09-01T09:18:19;3.03;;;1.87;;
1320;SDS011;653;51.480;11.992;2022-09-01T09:20:46;2.30;;;1.73;;
1320;SDS011;653;51.480;11.992;2022-09-01T09:23:28;4.93;;;1.90;;
1320;SDS011;653;51.480;11.992;2022-09-01T09:25:56;3.30;;;1.77;;
1320;SDS011;653;51.480;11.992;2022-09-01T09:28:21;5.20;;;2.77;;
1320;SDS011;653;51.480;11.992;2022-09-01T09:30:48;2.93;;;2.10;;
1320;SDS011;653;51.480;11.992;2022-09-01T09:33:32;2.20;;;1.63;;
1320;SDS011;653;51.480;11.992;2022-09-01T09:36:15;2.20;;;2.00;;
1320;SDS011;653;51.480;11.992;2022-09-01T09:38:43;5.80;;;2.33;;
1320;SDS011;653;51.480;11.992;2022-09-01T09:41:16;5.13;;;2.33;;
1320;SDS011;653;51.480;11.992;2022-09-01T09:49:11;2.90;;;1.80;;
1320;SDS011;653;51.480;11.992;2022-09-01T09:51:42;1.67;;;1.57;;
1320;SDS011;653;51.480;11.992;2022-09-01T09:54:28;1.70;;;1.60;;
1320;SDS011;653;51.480;11.992;2022-09-01T09:57:28;4.50;;;1.60;;
1320;SDS011;653;51.480;11.992;2022-09-01T09:59:47;3.60;;;1.90;;
1320;SDS011;653;51.480;11.992;2022-09-01T10:04:56;3.77;;;1.60;;
1320;SDS011;653;51.480;11.992;2022-09-01T10:07:27;2.63;;;1.77;;
1320;SDS011;653;51.480;11.992;2022-09-01T10:10:06;3.47;;;1.67;;
1320;SDS011;653;51.480;11.992;2022-09-01T10:12:33;2.23;;;1.60;;
1320;SDS011;653;51.480;11.992;2022-09-01T10:15:04;2.13;;;1.80;;
1320;SDS011;653;51.480;11.992;2022-09-01T10:17:33;1.90;;;1.70;;
1320;SDS011;653;51.480;11.992;2022-09-01T10:20:16;3.73;;;2.30;;
1320;SDS011;653;51.480;11.992;2022-09-01T10:22:45;3.23;;;1.60;;
1320;SDS011;653;51.480;11.992;2022-09-01T10:25:30;1.70;;;1.50;;
1320;SDS011;653;51.480;11.992;2022-09-01T10:28:18;3.07;;;1.57;;
1320;SDS011;653;51.480;11.992;2022-09-01T10:30:48;1.90;;;1.50;;
1320;SDS011;653;51.480;11.992;2022-09-01T10:33:15;2.53;;;1.37;;
1320;SDS011;653;51.480;11.992;2022-09-01T10:35:43;1.43;;;1.33;;
1320;SDS011;653;51.480;11.992;2022-09-01T10:38:15;3.73;;;1.63;;
1320;SDS011;653;51.480;11.992;2022-09-01T10:40:43;2.07;;;1.40;;
1320;SDS011;653;51.480;11.992;2022-09-01T10:43:31;3.20;;;1.60;;
1320;SDS011;653;51.480;11.992;2022-09-01T10:48:44;2.40;;;1.10;;
1320;SDS011;653;51.480;11.992;2022-09-01T10:53:40;1.70;;;1.47;;
1320;SDS011;653;51.480;11.992;2022-09-01T11:04:05;1.53;;;1.43;;
1320;SDS011;653;51.480;11.992;2022-09-01T11:09:26;1.63;;;1.30;;
1320;SDS011;653;51.480;11.992;2022-09-01T11:12:04;1.63;;;1.40;;
1320;SDS011;653;51.480;11.992;2022-09-01T11:14:32;2.77;;;1.70;;
1320;SDS011;653;51.480;11.992;2022-09-01T11:17:22;1.60;;;1.50;;
1320;SDS011;653;51.480;11.992;2022-09-01T11:20:52;4.43;;;1.40;;
1320;SDS011;653;51.480;11.992;2022-09-01T11:28:54;2.70;;;1.40;;
1320;SDS011;653;51.480;11.992;2022-09-01T11:36:29;4.27;;;2.30;;
1320;SDS011;653;51.480;11.992;2022-09-01T11:44:39;2.13;;;1.37;;
1320;SDS011;653;51.480;11.992;2022-09-01T11:47:18;1.60;;;1.50;;
1320;SDS011;653;51.480;11.992;2022-09-01T11:50:07;1.50;;;1.40;;
1320;SDS011;653;51.480;11.992;2022-09-01T11:52:33;2.20;;;1.70;;
1320;SDS011;653;51.480;11.992;2022-09-01T11:55:01;1.80;;;1.47;;
1320;SDS011;653;51.480;11.992;2022-09-01T12:00:04;1.27;;;1.10;;
1320;SDS011;653;51.480;11.992;2022-09-01T12:02:33;2.00;;;1.40;;
1320;SDS011;653;51.480;11.992;2022-09-01T12:05:01;2.10;;;1.60;;
1320;SDS011;653;51.480;11.992;2022-09-01T12:10:03;1.80;;;1.40;;
1320;SDS011;653;51.480;11.992;2022-09-01T12:12:36;1.97;;;1.57;;
1320;SDS011;653;51.480;11.992;2022-09-01T12:15:05;2.40;;;1.30;;
1320;SDS011;653;51.480;11.992;2022-09-01T12:17:33;1.50;;;1.40;;
1320;SDS011;653;51.480;11.992;2022-09-01T12:22:46;2.10;;;1.90;;
1320;SDS011;653;51.480;11.992;2022-09-01T12:25:31;1.57;;;1.47;;
1320;SDS011;653;51.480;11.992;2022-09-01T12:28:01;2.80;;;1.50;;
1320;SDS011;653;51.480;11.992;2022-09-01T12:30:27;1.50;;;1.40;;
1320;SDS011;653;51.480;11.992;2022-09-01T12:32:53;2.10;;;1.63;;
1320;SDS011;653;51.480;11.992;2022-09-01T12:35:23;1.80;;;1.70;;
1320;SDS011;653;51.480;11.992;2022-09-01T12:37:50;1.70;;;1.40;;
1320;SDS011;653;51.480;11.992;2022-09-01T12:40:30;1.80;;;1.50;;
1320;SDS011;653;51.480;11.992;2022-09-01T12:42:57;1.30;;;1.10;;
1320;SDS011;653;51.480;11.992;2022-09-01T12:45:42;3.47;;;1.47;;
1320;SDS011;653;51.480;11.992;2022-09-01T12:48:31;2.83;;;1.40;;
1320;SDS011;653;51.480;11.992;2022-09-01T12:51:21;4.17;;;1.60;;
1320;SDS011;653;51.480;11.992;2022-09-01T12:53:50;2.00;;;1.50;;
1320;SDS011;653;51.480;11.992;2022-09-01T12:56:28;1.80;;;1.40;;
1320;SDS011;653;51.480;11.992;2022-09-01T12:59:40;2.43;;;1.50;;
1320;SDS011;653;51.480;11.992;2022-09-01T13:01:48;1.40;;;1.30;;
1320;SDS011;653;51.480;11.992;2022-09-01T13:06:48;1.80;;;1.60;;
1320;SDS011;653;51.480;11.992;2022-09-01T13:09:14;2.20;;;2.00;;
1320;SDS011;653;51.480;11.992;2022-09-01T13:11:40;1.60;;;1.50;;
1320;SDS011;653;51.480;11.992;2022-09-01T13:14:12;1.53;;;1.43;;
1320;SDS011;653;51.480;11.992;2022-09-01T13:16:38;1.90;;;1.73;;
1320;SDS011;653;51.480;11.992;2022-09-01T13:19:04;2.23;;;1.87;;
1320;SDS011;653;51.480;11.992;2022-09-01T13:21:31;3.20;;;1.60;;
1320;SDS011;653;51.480;11.992;2022-09-01T13:23:58;2.37;;;1.77;;
1320;SDS011;653;51.480;11.992;2022-09-01T13:26:24;2.10;;;1.40;;
1320;SDS011;653;51.480;11.992;2022-09-01T13:28:50;1.83;;;1.57;;
1320;SDS011;653;51.480;11.992;2022-09-01T13:31:21;1.50;;;1.40;;
1320;SDS011;653;51.480;11.992;2022-09-01T13:34:04;1.97;;;1.77;;
1320;SDS011;653;51.480;11.992;2022-09-01T13:36:32;2.00;;;1.77;;
1320;SDS011;653;51.480;11.992;2022-09-01T13:38:58;1.40;;;1.30;;
1320;SDS011;653;51.480;11.992;2022-09-01T13:41:24;1.60;;;1.40;;
1320;SDS011;653;51.480;11.992;2022-09-01T13:43:50;1.97;;;1.40;;
1320;SDS011;653;51.480;11.992;2022-09-01T13:46:16;1.80;;;1.47;;
1320;SDS011;653;51.480;11.992;2022-09-01T13:48:41;2.37;;;1.30;;
1320;SDS011;653;51.480;11.992;2022-09-01T13:51:07;2.30;;;1.50;;
1320;SDS011;653;51.480;11.992;2022-09-01T13:53:34;1.40;;;1.30;;
1320;SDS011;653;51.480;11.992;2022-09-01T13:56:00;1.90;;;1.27;;
1320;SDS011;653;51.480;11.992;2022-09-01T13:58:25;1.73;;;1.33;;
1320;SDS011;653;51.480;11.992;2022-09-01T14:00:51;2.60;;;1.63;;
1320;SDS011;653;51.480;11.992;2022-09-01T14:03:21;2.00;;;1.53;;
1320;SDS011;653;51.480;11.992;2022-09-01T14:05:48;1.83;;;1.60;;
1320;SDS011;653;51.480;11.992;2022-09-01T14:08:18;1.87;;;1.40;;
1320;SDS011;653;51.480;11.992;2022-09-01T14:10:45;2.37;;;1.50;;
1320;SDS011;653;51.480;11.992;2022-09-01T14:13:13;2.00;;;1.70;;
1320;SDS011;653;51.480;11.992;2022-09-01T14:15:39;1.65;;;1.55;;
1320;SDS011;653;51.480;11.992;2022-09-01T14:18:05;1.65;;;1.55;;
1320;SDS011;653;51.480;11.992;2022-09-01T14:20:32;6.13;;;1.70;;
1320;SDS011;653;51.480;11.992;2022-09-01T14:23:00;1.70;;;1.50;;
1320;SDS011;653;51.480;11.992;2022-09-01T14:25:27;1.40;;;1.30;;
1320;SDS011;653;51.480;11.992;2022-09-01T14:27:53;2.03;;;1.83;;
1320;SDS011;653;51.480;11.992;2022-09-01T14:30:20;5.60;;;1.35;;
1320;SDS011;653;51.480;11.992;2022-09-01T14:32:47;1.67;;;1.27;;
1320;SDS011;653;51.480;11.992;2022-09-01T14:35:14;1.90;;;1.70;;
1320;SDS011;653;51.480;11.992;2022-09-01T14:37:41;1.90;;;1.70;;
1320;SDS011;653;51.480;11.992;2022-09-01T14:40:07;2.75;;;1.45;;
1320;SDS011;653;51.480;11.992;2022-09-01T14:42:34;3.17;;;1.58;;
1320;SDS011;653;51.480;11.992;2022-09-01T14:45:01;2.30;;;1.48;;
1320;SDS011;653;51.480;11.992;2022-09-01T14:47:29;1.70;;;1.45;;
1320;SDS011;653;51.480;11.992;2022-09-01T14:49:55;1.85;;;1.75;;
1320;SDS011;653;51.480;11.992;2022-09-01T14:52:20;1.98;;;1.50;;
1320;SDS011;653;51.480;11.992;2022-09-01T14:54:46;2.50;;;1.60;;
1320;SDS011;653;51.480;11.992;2022-09-01T14:57:12;1.60;;;1.50;;
1320;SDS011;653;51.480;11.992;2022-09-01T14:59:38;3.42;;;1.55;;
1320;SDS011;653;51.480;11.992;2022-09-01T15:02:04;2.05;;;1.70;;
1320;SDS011;653;51.480;11.992;2022-09-01T15:04:30;1.83;;;1.50;;
1320;SDS011;653;51.480;11.992;2022-09-01T15:06:56;1.48;;;1.38;;
1320;SDS011;653;51.480;11.992;2022-09-01T15:09:21;2.97;;;1.70;;
1320;SDS011;653;51.480;11.992;2022-09-01T15:11:47;3.00;;;2.50;;
1320;SDS011;653;51.480;11.992;2022-09-01T15:14:13;2.70;;;2.50;;
1320;SDS011;653;51.480;11.992;2022-09-01T15:16:38;5.68;;;3.30;;
1320;SDS011;653;51.480;11.992;2022-09-01T15:19:09;3.78;;;1.92;;
1320;SDS011;653;51.480;11.992;2022-09-01T15:21:37;4.00;;;2.50;;
1320;SDS011;653;51.480;11.992;2022-09-01T15:24:05;3.35;;;2.60;;
1320;SDS011;653;51.480;11.992;2022-09-01T15:26:31;3.55;;;1.98;;
1320;SDS011;653;51.480;11.992;2022-09-01T15:28:57;3.30;;;3.00;;
1320;SDS011;653;51.480;11.992;2022-09-01T15:31:23;3.38;;;2.45;;
1320;SDS011;653;51.480;11.992;2022-09-01T15:33:53;2.15;;;1.95;;
1320;SDS011;653;51.480;11.992;2022-09-01T15:36:20;2.50;;;1.95;;
1320;SDS011;653;51.480;11.992;2022-09-01T15:38:47;1.52;;;1.42;;
1320;SDS011;653;51.480;11.992;2022-09-01T15:41:16;1.77;;;1.67;;
1320;SDS011;653;51.480;11.992;2022-09-01T15:43:42;2.58;;;1.50;;
1320;SDS011;653;51.480;11.992;2022-09-01T15:46:07;1.30;;;1.20;;
1320;SDS011;653;51.480;11.992;2022-09-01T15:48:33;1.52;;;1.27;;
1320;SDS011;653;51.480;11.992;2022-09-01T15:51:24;1.70;;;1.60;;
1320;SDS011;653;51.480;11.992;2022-09-01T15:53:47;2.00;;;1.52;;
1320;SDS011;653;51.480;11.992;2022-09-01T15:56:13;1.42;;;1.33;;
1320;SDS011;653;51.480;11.992;2022-09-01T15:58:42;2.03;;;1.50;;
1320;SDS011;653;51.480;11.992;2022-09-01T16:01:07;2.72;;;1.67;;
1320;SDS011;653;51.480;11.992;2022-09-01T16:03:32;1.95;;;1.65;;
1320;SDS011;653;51.480;11.992;2022-09-01T16:05:58;1.73;;;1.63;;
1320;SDS011;653;51.480;11.992;2022-09-01T16:08:24;1.95;;;1.60;;
1320;SDS011;653;51.480;11.992;2022-09-01T16:10:50;2.05;;;1.50;;
1320;SDS011;653;51.480;11.992;2022-09-01T16:13:15;1.98;;;1.77;;
1320;SDS011;653;51.480;11.992;2022-09-01T16:15:50;2.35;;;1.88;;
1320;SDS011;653;51.480;11.992;2022-09-01T16:18:32;2.50;;;1.63;;
1320;SDS011;653;51.480;11.992;2022-09-01T16:21:11;2.15;;;1.80;;
1320;SDS011;653;51.480;11.992;2022-09-01T16:24:06;1.80;;;1.60;;
1320;SDS011;653;51.480;11.992;2022-09-01T16:26:34;2.40;;;1.85;;
1320;SDS011;653;51.480;11.992;2022-09-01T16:29:00;1.55;;;1.45;;
1320;SDS011;653;51.480;11.992;2022-09-01T16:31:30;1.75;;;1.50;;
1320;SDS011;653;51.480;11.992;2022-09-01T16:33:57;2.22;;;1.58;;
1320;SDS011;653;51.480;11.992;2022-09-01T16:39:15;1.70;;;1.52;;
1320;SDS011;653;51.480;11.992;2022-09-01T16:44:29;1.60;;;1.50;;
1320;SDS011;653;51.480;11.992;2022-09-01T16:47:06;1.98;;;1.52;;
1320;SDS011;653;51.480;11.992;2022-09-01T16:52:28;1.80;;;1.70;;